Hauptseite
METAR-TAF:

METAR-TAF

Flughäfen :

Fliegerhorst Hohn

Hohn, Deutschland

Breite: 54-19N, Länge: 009-32E, Höhe: 12 m

Beobachtung

Neuester Wetterbericht von vor 16 Minuten, um 13:20 UTC
Wind 7 kt aus West/Südwest
Temperatur 29°C
Luftfeuchtigkeit 31%
Luftdruck 1012 hPa
Sichtweite 10 km oder mehr
Leicht bewölkt in der Höhe von 6000 ft

METAR: ETNH 171320Z 25007KT 9999 FEW060 29/10 Q1012 BLU+BLU+

Zeit: 15:36 (13:36 UTC)

Prognose

Neuester Wetterbericht von vor 3 Stunden und 16 Minuten, um 10:20 UTC
Gültige Prognose vom 17 um 11 UTC bis 17 um 23 UTC
Wind 7 kt aus West
Sichtweite 10 km oder mehr
Aufgelockert bewölkt in der Höhe von 5000 ft

TAF: ETNH 171020Z 1711/1723 28007KT 9999 NSW SCT050 BY ETGL

Wetterbeobachtungen und Prognosen von mehr als 4000 Flughäfen (METAR und TAF Bericht).

Die verfügbaren Stationen werden durch gelbe und rote Markierungen auf der Karte dargestellt.

Führen Sie die Maus auf sie, um den Namen der Station zu sehen.

Darauf klicken, um die Beobachtung von Wetterbeobachtungen und Prognosen zu sehen.

Um die Karte zu ändern : klicken Sie auf den grünen Tasten mit einem schwarzen Kreuz Zum Vergrößern, auf den grünen Button mit einem Gedankenstrich zu verkleinern, oder auf die grünen Pfeile für benachbarte Karten.


METAR-TAF: